sensor_id;sensor_type;location;lat;lon;timestamp;pressure;altitude;pressure_sealevel;temperature;humidity
53246;BME280;39569;51.090;-1.786;2022-10-16T00:02:26;99898.03;;;18.76;51.71
53246;BME280;39569;51.090;-1.786;2022-10-16T00:04:52;99892.13;;;19.17;50.97
53246;BME280;39569;51.090;-1.786;2022-10-16T00:07:20;99902.28;;;19.27;50.44
53246;BME280;39569;51.090;-1.786;2022-10-16T00:09:47;99914.34;;;19.36;50.86
53246;BME280;39569;51.090;-1.786;2022-10-16T00:12:15;99914.97;;;19.65;50.04
53246;BME280;39569;51.090;-1.786;2022-10-16T00:14:42;99915.63;;;19.12;51.16
53246;BME280;39569;51.090;-1.786;2022-10-16T00:17:09;99921.44;;;19.85;49.51
53246;BME280;39569;51.090;-1.786;2022-10-16T00:19:36;99926.47;;;19.98;49.89
53246;BME280;39569;51.090;-1.786;2022-10-16T00:22:03;99923.88;;;19.60;49.89
53246;BME280;39569;51.090;-1.786;2022-10-16T00:24:29;99917.91;;;19.03;52.19
53246;BME280;39569;51.090;-1.786;2022-10-16T00:26:56;99938.28;;;19.44;50.73
53246;BME280;39569;51.090;-1.786;2022-10-16T00:29:25;99917.00;;;19.52;50.07
53246;BME280;39569;51.090;-1.786;2022-10-16T00:31:51;99925.75;;;19.59;50.20
53246;BME280;39569;51.090;-1.786;2022-10-16T00:34:18;99922.25;;;19.86;49.71
53246;BME280;39569;51.090;-1.786;2022-10-16T00:36:46;99930.47;;;19.31;51.04
53246;BME280;39569;51.090;-1.786;2022-10-16T00:39:13;99913.75;;;19.77;49.83
53246;BME280;39569;51.090;-1.786;2022-10-16T00:41:40;99924.16;;;19.85;49.64
53246;BME280;39569;51.090;-1.786;2022-10-16T00:47:10;99923.00;;;19.81;50.04
53246;BME280;39569;51.090;-1.786;2022-10-16T00:49:38;99928.88;;;19.51;49.99
53246;BME280;39569;51.090;-1.786;2022-10-16T00:52:05;99927.00;;;20.22;49.03
53246;BME280;39569;51.090;-1.786;2022-10-16T00:54:32;99928.06;;;19.73;49.96
53246;BME280;39569;51.090;-1.786;2022-10-16T00:57:01;99935.94;;;19.74;49.57
53246;BME280;39569;51.090;-1.786;2022-10-16T00:59:32;99936.28;;;19.34;50.61
53246;BME280;39569;51.090;-1.786;2022-10-16T01:02:00;99934.38;;;19.35;50.53
53246;BME280;39569;51.090;-1.786;2022-10-16T01:04:32;99935.25;;;19.84;49.28
53246;BME280;39569;51.090;-1.786;2022-10-16T01:07:06;99932.75;;;19.55;49.17
53246;BME280;39569;51.090;-1.786;2022-10-16T01:09:44;99943.47;;;19.45;50.22
53246;BME280;39569;51.090;-1.786;2022-10-16T01:12:16;99944.06;;;19.14;49.66
53246;BME280;39569;51.090;-1.786;2022-10-16T01:14:50;99938.34;;;19.49;48.53
53246;BME280;39569;51.090;-1.786;2022-10-16T01:17:22;99938.84;;;18.91;49.35
53246;BME280;39569;51.090;-1.786;2022-10-16T01:20:11;99936.78;;;18.98;49.04
53246;BME280;39569;51.090;-1.786;2022-10-16T01:22:50;99939.28;;;19.59;48.17
53246;BME280;39569;51.090;-1.786;2022-10-16T01:25:28;99934.13;;;19.20;49.34
53246;BME280;39569;51.090;-1.786;2022-10-16T01:27:59;99934.06;;;19.53;48.34
53246;BME280;39569;51.090;-1.786;2022-10-16T01:30:30;99947.28;;;19.11;49.58
53246;BME280;39569;51.090;-1.786;2022-10-16T01:33:01;99944.22;;;20.32;46.61
53246;BME280;39569;51.090;-1.786;2022-10-16T01:35:32;99948.31;;;19.27;49.39
53246;BME280;39569;51.090;-1.786;2022-10-16T01:38:03;99961.91;;;19.70;48.70
53246;BME280;39569;51.090;-1.786;2022-10-16T01:40:33;99952.03;;;20.07;47.69
53246;BME280;39569;51.090;-1.786;2022-10-16T01:43:05;99955.53;;;20.03;47.86
53246;BME280;39569;51.090;-1.786;2022-10-16T01:45:34;99957.81;;;19.29;49.81
53246;BME280;39569;51.090;-1.786;2022-10-16T01:48:03;99964.19;;;19.78;48.95
53246;BME280;39569;51.090;-1.786;2022-10-16T01:50:35;99971.81;;;19.21;50.29
53246;BME280;39569;51.090;-1.786;2022-10-16T01:53:05;99973.16;;;19.40;49.90
53246;BME280;39569;51.090;-1.786;2022-10-16T01:55:35;99965.41;;;18.61;51.98
53246;BME280;39569;51.090;-1.786;2022-10-16T01:58:07;99966.81;;;19.51;49.13
53246;BME280;39569;51.090;-1.786;2022-10-16T02:00:37;99972.78;;;19.15;50.41
53246;BME280;39569;51.090;-1.786;2022-10-16T02:03:06;99979.66;;;18.40;52.64
53246;BME280;39569;51.090;-1.786;2022-10-16T02:05:37;99991.31;;;18.90;51.29
53246;BME280;39569;51.090;-1.786;2022-10-16T02:08:05;99982.69;;;19.43;49.89
53246;BME280;39569;51.090;-1.786;2022-10-16T02:10:34;99982.06;;;19.19;50.10
53246;BME280;39569;51.090;-1.786;2022-10-16T02:13:10;99988.16;;;20.13;47.94
53246;BME280;39569;51.090;-1.786;2022-10-16T02:15:38;99996.88;;;19.50;49.77
53246;BME280;39569;51.090;-1.786;2022-10-16T02:18:06;99997.25;;;20.02;48.05
53246;BME280;39569;51.090;-1.786;2022-10-16T02:20:37;99992.97;;;19.08;50.73
53246;BME280;39569;51.090;-1.786;2022-10-16T02:23:12;100000.19;;;18.86;50.90
53246;BME280;39569;51.090;-1.786;2022-10-16T02:25:45;100005.09;;;18.72;51.11
53246;BME280;39569;51.090;-1.786;2022-10-16T02:28:17;99997.47;;;19.35;49.62
53246;BME280;39569;51.090;-1.786;2022-10-16T02:30:48;100002.38;;;19.77;48.67
53246;BME280;39569;51.090;-1.786;2022-10-16T02:33:19;100003.53;;;19.26;49.46
53246;BME280;39569;51.090;-1.786;2022-10-16T02:35:49;100000.75;;;19.97;47.60
53246;BME280;39569;51.090;-1.786;2022-10-16T02:38:17;100014.91;;;19.83;47.60
53246;BME280;39569;51.090;-1.786;2022-10-16T02:40:45;100004.44;;;20.13;47.07
53246;BME280;39569;51.090;-1.786;2022-10-16T02:43:13;100008.00;;;19.92;47.63
53246;BME280;39569;51.090;-1.786;2022-10-16T02:45:41;100017.22;;;20.39;46.31
53246;BME280;39569;51.090;-1.786;2022-10-16T02:48:08;100033.56;;;19.57;48.01
53246;BME280;39569;51.090;-1.786;2022-10-16T02:50:35;100040.16;;;20.05;46.90
53246;BME280;39569;51.090;-1.786;2022-10-16T02:53:02;100038.22;;;20.48;45.75
53246;BME280;39569;51.090;-1.786;2022-10-16T02:55:29;100044.53;;;20.81;45.04
53246;BME280;39569;51.090;-1.786;2022-10-16T02:57:56;100044.34;;;20.92;43.91
53246;BME280;39569;51.090;-1.786;2022-10-16T03:00:22;100052.03;;;20.74;44.81
53246;BME280;39569;51.090;-1.786;2022-10-16T03:02:50;100048.00;;;19.85;46.98
53246;BME280;39569;51.090;-1.786;2022-10-16T03:05:17;100057.22;;;20.05;46.67
53246;BME280;39569;51.090;-1.786;2022-10-16T03:07:44;100043.41;;;20.07;46.24
53246;BME280;39569;51.090;-1.786;2022-10-16T03:10:11;100041.69;;;20.71;44.41
53246;BME280;39569;51.090;-1.786;2022-10-16T03:12:38;100049.19;;;20.59;44.43
53246;BME280;39569;51.090;-1.786;2022-10-16T03:15:06;100045.13;;;19.91;46.18
53246;BME280;39569;51.090;-1.786;2022-10-16T03:17:33;100051.47;;;19.80;46.44
53246;BME280;39569;51.090;-1.786;2022-10-16T03:20:01;100048.34;;;19.88;46.63
53246;BME280;39569;51.090;-1.786;2022-10-16T03:22:28;100051.78;;;20.05;45.31
53246;BME280;39569;51.090;-1.786;2022-10-16T03:24:55;100067.16;;;19.23;47.53
53246;BME280;39569;51.090;-1.786;2022-10-16T03:27:21;100056.06;;;19.80;45.93
53246;BME280;39569;51.090;-1.786;2022-10-16T03:29:48;100059.03;;;19.78;46.77
53246;BME280;39569;51.090;-1.786;2022-10-16T03:32:15;100057.22;;;19.84;46.14
53246;BME280;39569;51.090;-1.786;2022-10-16T03:34:42;100070.66;;;20.17;45.53
53246;BME280;39569;51.090;-1.786;2022-10-16T03:37:10;100070.50;;;20.23;45.30
53246;BME280;39569;51.090;-1.786;2022-10-16T03:39:37;100078.72;;;19.35;47.29
53246;BME280;39569;51.090;-1.786;2022-10-16T03:42:04;100075.50;;;19.38;47.12
53246;BME280;39569;51.090;-1.786;2022-10-16T03:44:31;100079.53;;;19.19;47.14
53246;BME280;39569;51.090;-1.786;2022-10-16T03:46:57;100090.97;;;18.48;48.54
53246;BME280;39569;51.090;-1.786;2022-10-16T03:49:24;100094.75;;;18.92;47.24
53246;BME280;39569;51.090;-1.786;2022-10-16T03:51:51;100099.00;;;19.33;46.54
53246;BME280;39569;51.090;-1.786;2022-10-16T03:54:19;100094.69;;;19.20;46.73
53246;BME280;39569;51.090;-1.786;2022-10-16T03:56:47;100101.97;;;19.03;46.62
53246;BME280;39569;51.090;-1.786;2022-10-16T03:59:14;100110.88;;;18.71;47.76
53246;BME280;39569;51.090;-1.786;2022-10-16T04:01:41;100113.19;;;19.23;45.85
53246;BME280;39569;51.090;-1.786;2022-10-16T04:04:07;100114.22;;;19.72;44.59
53246;BME280;39569;51.090;-1.786;2022-10-16T04:06:34;100124.81;;;19.24;45.90
53246;BME280;39569;51.090;-1.786;2022-10-16T04:09:01;100121.63;;;19.27;45.78
53246;BME280;39569;51.090;-1.786;2022-10-16T04:11:29;100123.03;;;19.46;45.36
53246;BME280;39569;51.090;-1.786;2022-10-16T04:13:56;100132.69;;;19.25;45.85
53246;BME280;39569;51.090;-1.786;2022-10-16T04:16:23;100132.22;;;18.55;47.35
53246;BME280;39569;51.090;-1.786;2022-10-16T04:18:50;100142.94;;;18.39;47.34
53246;BME280;39569;51.090;-1.786;2022-10-16T04:21:17;100138.22;;;18.86;47.07
53246;BME280;39569;51.090;-1.786;2022-10-16T04:23:43;100139.56;;;18.43;47.70
53246;BME280;39569;51.090;-1.786;2022-10-16T04:26:10;100156.53;;;18.16;48.93
53246;BME280;39569;51.090;-1.786;2022-10-16T04:28:38;100153.22;;;18.14;48.51
53246;BME280;39569;51.090;-1.786;2022-10-16T04:31:05;100157.47;;;18.61;47.61
53246;BME280;39569;51.090;-1.786;2022-10-16T04:33:33;100168.34;;;18.38;47.64
53246;BME280;39569;51.090;-1.786;2022-10-16T04:36:00;100166.44;;;18.38;48.10
53246;BME280;39569;51.090;-1.786;2022-10-16T04:38:28;100167.06;;;18.80;46.83
53246;BME280;39569;51.090;-1.786;2022-10-16T04:40:55;100160.78;;;18.91;46.37
53246;BME280;39569;51.090;-1.786;2022-10-16T04:43:22;100160.91;;;18.85;46.41
53246;BME280;39569;51.090;-1.786;2022-10-16T04:45:50;100167.88;;;18.52;47.11
53246;BME280;39569;51.090;-1.786;2022-10-16T04:48:18;100179.66;;;18.75;46.83
53246;BME280;39569;51.090;-1.786;2022-10-16T04:50:45;100181.28;;;18.47;47.03
53246;BME280;39569;51.090;-1.786;2022-10-16T04:53:12;100186.78;;;18.41;47.60
53246;BME280;39569;51.090;-1.786;2022-10-16T04:55:39;100178.16;;;18.67;46.71
53246;BME280;39569;51.090;-1.786;2022-10-16T04:58:07;100182.66;;;18.38;47.20
53246;BME280;39569;51.090;-1.786;2022-10-16T05:00:34;100189.66;;;18.74;46.50
53246;BME280;39569;51.090;-1.786;2022-10-16T05:03:03;100198.72;;;18.68;46.26
53246;BME280;39569;51.090;-1.786;2022-10-16T05:05:32;100197.88;;;18.79;45.78
53246;BME280;39569;51.090;-1.786;2022-10-16T05:07:59;100199.88;;;17.98;48.04
53246;BME280;39569;51.090;-1.786;2022-10-16T05:10:26;100205.94;;;18.62;46.77
53246;BME280;39569;51.090;-1.786;2022-10-16T05:12:53;100218.44;;;18.29;47.55
53246;BME280;39569;51.090;-1.786;2022-10-16T05:15:20;100225.75;;;17.94;48.26
53246;BME280;39569;51.090;-1.786;2022-10-16T05:17:52;100221.13;;;18.52;46.50
53246;BME280;39569;51.090;-1.786;2022-10-16T05:20:20;100224.03;;;19.02;45.76
53246;BME280;39569;51.090;-1.786;2022-10-16T05:22:47;100230.59;;;18.78;45.73
53246;BME280;39569;51.090;-1.786;2022-10-16T05:25:15;100238.31;;;18.46;47.14
53246;BME280;39569;51.090;-1.786;2022-10-16T05:27:42;100241.47;;;17.85;48.17
53246;BME280;39569;51.090;-1.786;2022-10-16T05:30:09;100247.00;;;18.25;47.51
53246;BME280;39569;51.090;-1.786;2022-10-16T05:32:36;100246.56;;;18.91;45.30
53246;BME280;39569;51.090;-1.786;2022-10-16T05:35:04;100243.88;;;18.79;45.58
53246;BME280;39569;51.090;-1.786;2022-10-16T05:37:32;100249.34;;;18.56;46.36
53246;BME280;39569;51.090;-1.786;2022-10-16T05:39:59;100244.78;;;18.10;47.26
53246;BME280;39569;51.090;-1.786;2022-10-16T05:42:26;100252.75;;;18.28;46.46
53246;BME280;39569;51.090;-1.786;2022-10-16T05:44:53;100256.75;;;18.03;47.05
53246;BME280;39569;51.090;-1.786;2022-10-16T05:47:20;100263.56;;;18.17;46.90
53246;BME280;39569;51.090;-1.786;2022-10-16T05:49:47;100260.72;;;17.77;48.57
53246;BME280;39569;51.090;-1.786;2022-10-16T05:52:14;100270.72;;;17.77;47.34
53246;BME280;39569;51.090;-1.786;2022-10-16T05:54:42;100263.09;;;18.31;46.26
53246;BME280;39569;51.090;-1.786;2022-10-16T05:57:09;100274.03;;;18.13;47.50
53246;BME280;39569;51.090;-1.786;2022-10-16T05:59:36;100274.88;;;18.48;46.01
53246;BME280;39569;51.090;-1.786;2022-10-16T06:02:03;100277.78;;;18.35;46.52
53246;BME280;39569;51.090;-1.786;2022-10-16T06:04:30;100275.19;;;17.94;47.60
53246;BME280;39569;51.090;-1.786;2022-10-16T06:06:58;100267.47;;;18.21;47.08
53246;BME280;39569;51.090;-1.786;2022-10-16T06:09:25;100269.00;;;18.28;47.17
53246;BME280;39569;51.090;-1.786;2022-10-16T06:11:54;100282.06;;;17.67;48.08
53246;BME280;39569;51.090;-1.786;2022-10-16T06:14:21;100282.22;;;17.84;47.52
53246;BME280;39569;51.090;-1.786;2022-10-16T06:16:48;100285.44;;;17.62;48.17
53246;BME280;39569;51.090;-1.786;2022-10-16T06:19:14;100291.00;;;17.67;48.24
53246;BME280;39569;51.090;-1.786;2022-10-16T06:21:41;100288.59;;;18.01;47.06
53246;BME280;39569;51.090;-1.786;2022-10-16T06:24:09;100291.31;;;18.01;47.22
53246;BME280;39569;51.090;-1.786;2022-10-16T06:26:37;100295.75;;;17.24;48.49
53246;BME280;39569;51.090;-1.786;2022-10-16T06:29:05;100292.56;;;17.45;49.02
53246;BME280;39569;51.090;-1.786;2022-10-16T06:31:32;100294.81;;;17.48;48.32
53246;BME280;39569;51.090;-1.786;2022-10-16T06:33:59;100301.13;;;16.58;50.57
53246;BME280;39569;51.090;-1.786;2022-10-16T06:36:27;100300.81;;;16.85;51.11
53246;BME280;39569;51.090;-1.786;2022-10-16T06:38:55;100307.78;;;16.56;52.02
53246;BME280;39569;51.090;-1.786;2022-10-16T06:41:23;100310.19;;;16.64;52.30
53246;BME280;39569;51.090;-1.786;2022-10-16T06:43:50;100309.72;;;16.85;52.07
53246;BME280;39569;51.090;-1.786;2022-10-16T06:46:21;100315.84;;;17.28;51.24
53246;BME280;39569;51.090;-1.786;2022-10-16T06:48:48;100305.19;;;17.63;50.04
53246;BME280;39569;51.090;-1.786;2022-10-16T06:51:16;100314.78;;;17.47;50.46
53246;BME280;39569;51.090;-1.786;2022-10-16T06:53:45;100314.13;;;17.63;49.54
53246;BME280;39569;51.090;-1.786;2022-10-16T06:56:14;100324.59;;;17.42;50.55
53246;BME280;39569;51.090;-1.786;2022-10-16T06:58:42;100334.84;;;16.67;53.10
53246;BME280;39569;51.090;-1.786;2022-10-16T07:01:10;100336.69;;;17.03;52.72
53246;BME280;39569;51.090;-1.786;2022-10-16T07:03:39;100347.31;;;17.16;52.32
53246;BME280;39569;51.090;-1.786;2022-10-16T07:06:09;100347.81;;;17.61;50.92
53246;BME280;39569;51.090;-1.786;2022-10-16T07:08:38;100346.59;;;17.75;51.13
53246;BME280;39569;51.090;-1.786;2022-10-16T07:11:06;100351.38;;;18.26;49.42
53246;BME280;39569;51.090;-1.786;2022-10-16T07:13:33;100362.13;;;18.67;48.55
53246;BME280;39569;51.090;-1.786;2022-10-16T07:16:04;100365.53;;;18.62;48.54
53246;BME280;39569;51.090;-1.786;2022-10-16T07:18:31;100365.00;;;18.31;49.51
53246;BME280;39569;51.090;-1.786;2022-10-16T07:21:04;100368.72;;;18.59;48.95
53246;BME280;39569;51.090;-1.786;2022-10-16T07:23:31;100366.03;;;18.83;48.79
53246;BME280;39569;51.090;-1.786;2022-10-16T07:25:58;100367.75;;;19.51;47.20
53246;BME280;39569;51.090;-1.786;2022-10-16T07:28:25;100366.44;;;20.10;45.86
53246;BME280;39569;51.090;-1.786;2022-10-16T07:30:52;100370.66;;;20.51;44.62
53246;BME280;39569;51.090;-1.786;2022-10-16T07:33:19;100377.56;;;20.97;43.57
53246;BME280;39569;51.090;-1.786;2022-10-16T07:35:49;100377.75;;;22.98;39.03
53246;BME280;39569;51.090;-1.786;2022-10-16T07:38:18;100382.41;;;23.55;38.71
53246;BME280;39569;51.090;-1.786;2022-10-16T07:40:45;100366.41;;;24.03;37.13
53246;BME280;39569;51.090;-1.786;2022-10-16T07:43:12;100368.34;;;24.78;35.04
53246;BME280;39569;51.090;-1.786;2022-10-16T07:45:46;100373.38;;;25.30;36.38
53246;BME280;39569;51.090;-1.786;2022-10-16T07:48:14;100376.38;;;25.44;34.84
53246;BME280;39569;51.090;-1.786;2022-10-16T07:50:41;100381.34;;;25.85;33.39
53246;BME280;39569;51.090;-1.786;2022-10-16T07:53:08;100381.69;;;25.74;33.74
53246;BME280;39569;51.090;-1.786;2022-10-16T07:55:37;100383.41;;;26.03;32.84
53246;BME280;39569;51.090;-1.786;2022-10-16T07:58:04;100370.94;;;26.60;32.42
53246;BME280;39569;51.090;-1.786;2022-10-16T08:00:31;100380.59;;;27.09;32.17
53246;BME280;39569;51.090;-1.786;2022-10-16T08:02:59;100379.09;;;27.64;30.73
53246;BME280;39569;51.090;-1.786;2022-10-16T08:05:26;100382.06;;;26.40;31.87
53246;BME280;39569;51.090;-1.786;2022-10-16T08:07:53;100392.09;;;24.83;35.36
53246;BME280;39569;51.090;-1.786;2022-10-16T08:10:22;100386.34;;;25.04;34.92
53246;BME280;39569;51.090;-1.786;2022-10-16T08:12:51;100387.66;;;28.19;30.27
53246;BME280;39569;51.090;-1.786;2022-10-16T08:15:18;100392.53;;;27.84;30.89
53246;BME280;39569;51.090;-1.786;2022-10-16T08:17:54;100389.06;;;28.99;29.05
53246;BME280;39569;51.090;-1.786;2022-10-16T08:20:21;100395.00;;;29.47;28.42
53246;BME280;39569;51.090;-1.786;2022-10-16T08:22:47;100401.81;;;29.49;27.78
53246;BME280;39569;51.090;-1.786;2022-10-16T08:25:14;100402.78;;;28.85;29.89
53246;BME280;39569;51.090;-1.786;2022-10-16T08:27:41;100418.31;;;28.07;30.05
53246;BME280;39569;51.090;-1.786;2022-10-16T08:30:11;100410.06;;;26.99;31.87
53246;BME280;39569;51.090;-1.786;2022-10-16T08:32:38;100415.06;;;24.62;35.07
53246;BME280;39569;51.090;-1.786;2022-10-16T08:35:05;100421.81;;;25.88;34.12
53246;BME280;39569;51.090;-1.786;2022-10-16T08:37:32;100420.97;;;27.51;32.09
53246;BME280;39569;51.090;-1.786;2022-10-16T08:39:59;100414.81;;;28.89;29.74
53246;BME280;39569;51.090;-1.786;2022-10-16T08:42:40;100415.25;;;29.10;30.01
53246;BME280;39569;51.090;-1.786;2022-10-16T08:45:33;100422.41;;;28.28;30.82
53246;BME280;39569;51.090;-1.786;2022-10-16T08:48:10;100425.78;;;26.55;32.25
53246;BME280;39569;51.090;-1.786;2022-10-16T08:50:42;100424.13;;;28.05;31.36
53246;BME280;39569;51.090;-1.786;2022-10-16T08:53:18;100425.66;;;26.70;32.25
53246;BME280;39569;51.090;-1.786;2022-10-16T08:55:50;100432.75;;;28.18;30.96
53246;BME280;39569;51.090;-1.786;2022-10-16T08:58:19;100441.56;;;27.96;31.21
53246;BME280;39569;51.090;-1.786;2022-10-16T09:00:49;100439.88;;;27.76;32.64
53246;BME280;39569;51.090;-1.786;2022-10-16T09:03:24;100441.41;;;28.43;30.52
53246;BME280;39569;51.090;-1.786;2022-10-16T09:06:12;100431.59;;;29.47;29.72
53246;BME280;39569;51.090;-1.786;2022-10-16T09:08:50;100439.56;;;29.49;30.60
53246;BME280;39569;51.090;-1.786;2022-10-16T09:11:25;100439.53;;;30.25;28.72
53246;BME280;39569;51.090;-1.786;2022-10-16T09:14:00;100440.09;;;30.14;29.31
53246;BME280;39569;51.090;-1.786;2022-10-16T09:16:37;100437.06;;;30.37;27.91
53246;BME280;39569;51.090;-1.786;2022-10-16T09:19:13;100436.84;;;31.31;26.88
53246;BME280;39569;51.090;-1.786;2022-10-16T09:21:44;100436.19;;;30.72;27.96
53246;BME280;39569;51.090;-1.786;2022-10-16T09:24:15;100436.28;;;31.12;27.09
53246;BME280;39569;51.090;-1.786;2022-10-16T09:26:44;100442.47;;;30.42;28.43
53246;BME280;39569;51.090;-1.786;2022-10-16T09:29:11;100434.63;;;30.80;27.39
53246;BME280;39569;51.090;-1.786;2022-10-16T09:31:40;100434.75;;;30.75;28.52
53246;BME280;39569;51.090;-1.786;2022-10-16T09:34:17;100436.66;;;31.19;27.45
53246;BME280;39569;51.090;-1.786;2022-10-16T09:36:48;100431.59;;;31.51;26.15
53246;BME280;39569;51.090;-1.786;2022-10-16T09:39:15;100432.53;;;31.38;27.37
53246;BME280;39569;51.090;-1.786;2022-10-16T09:41:44;100440.19;;;32.06;26.87
53246;BME280;39569;51.090;-1.786;2022-10-16T09:44:19;100436.50;;;31.63;26.97
53246;BME280;39569;51.090;-1.786;2022-10-16T09:47:01;100450.13;;;32.67;24.90
53246;BME280;39569;51.090;-1.786;2022-10-16T09:49:28;100443.09;;;30.61;27.69
53246;BME280;39569;51.090;-1.786;2022-10-16T09:52:03;100449.84;;;30.20;28.29
53246;BME280;39569;51.090;-1.786;2022-10-16T09:54:31;100455.91;;;28.67;29.42
53246;BME280;39569;51.090;-1.786;2022-10-16T09:57:04;100452.31;;;26.93;32.76
53246;BME280;39569;51.090;-1.786;2022-10-16T09:59:31;100449.56;;;28.48;29.88
53246;BME280;39569;51.090;-1.786;2022-10-16T10:02:04;100438.94;;;28.92;29.92
53246;BME280;39569;51.090;-1.786;2022-10-16T10:04:40;100437.50;;;27.70;31.31
53246;BME280;39569;51.090;-1.786;2022-10-16T10:07:17;100430.75;;;29.20;29.51
53246;BME280;39569;51.090;-1.786;2022-10-16T10:09:45;100427.44;;;28.90;29.40
53246;BME280;39569;51.090;-1.786;2022-10-16T10:12:21;100432.00;;;29.81;28.97
53246;BME280;39569;51.090;-1.786;2022-10-16T10:14:49;100425.72;;;32.01;25.49
53246;BME280;39569;51.090;-1.786;2022-10-16T10:17:20;100430.91;;;31.37;26.74
53246;BME280;39569;51.090;-1.786;2022-10-16T10:19:50;100438.72;;;29.89;28.26
53246;BME280;39569;51.090;-1.786;2022-10-16T10:22:32;100449.34;;;29.82;28.48
53246;BME280;39569;51.090;-1.786;2022-10-16T10:25:28;100450.25;;;28.91;29.98
53246;BME280;39569;51.090;-1.786;2022-10-16T10:28:31;100446.06;;;29.80;28.83
53246;BME280;39569;51.090;-1.786;2022-10-16T10:31:06;100454.66;;;27.57;32.57
53246;BME280;39569;51.090;-1.786;2022-10-16T10:33:43;100445.44;;;28.83;29.19
53246;BME280;39569;51.090;-1.786;2022-10-16T10:36:22;100461.03;;;27.76;31.82
53246;BME280;39569;51.090;-1.786;2022-10-16T10:38:56;100447.66;;;28.11;31.46
53246;BME280;39569;51.090;-1.786;2022-10-16T10:41:36;100445.25;;;29.52;30.37
53246;BME280;39569;51.090;-1.786;2022-10-16T10:44:14;100439.88;;;28.56;31.53
53246;BME280;39569;51.090;-1.786;2022-10-16T10:46:47;100443.84;;;29.41;30.22
53246;BME280;39569;51.090;-1.786;2022-10-16T10:49:42;100444.50;;;29.20;30.36
53246;BME280;39569;51.090;-1.786;2022-10-16T10:52:15;100437.81;;;29.39;29.96
53246;BME280;39569;51.090;-1.786;2022-10-16T10:54:51;100431.72;;;29.69;29.45
53246;BME280;39569;51.090;-1.786;2022-10-16T10:57:22;100436.28;;;29.74;29.06
53246;BME280;39569;51.090;-1.786;2022-10-16T11:00:06;100433.75;;;30.93;28.21
53246;BME280;39569;51.090;-1.786;2022-10-16T11:02:41;100441.06;;;30.31;28.77
53246;BME280;39569;51.090;-1.786;2022-10-16T11:05:36;100449.88;;;28.65;30.22
53246;BME280;39569;51.090;-1.786;2022-10-16T11:08:10;100452.78;;;28.87;30.38
53246;BME280;39569;51.090;-1.786;2022-10-16T11:10:44;100448.75;;;28.48;31.74
53246;BME280;39569;51.090;-1.786;2022-10-16T11:13:21;100435.88;;;29.67;28.68
53246;BME280;39569;51.090;-1.786;2022-10-16T11:15:53;100436.16;;;28.79;29.79
53246;BME280;39569;51.090;-1.786;2022-10-16T11:18:26;100438.09;;;29.65;28.52
53246;BME280;39569;51.090;-1.786;2022-10-16T11:20:57;100446.78;;;29.72;28.14
53246;BME280;39569;51.090;-1.786;2022-10-16T11:23:30;100437.44;;;30.09;28.37
53246;BME280;39569;51.090;-1.786;2022-10-16T11:26:02;100442.50;;;29.52;29.36
53246;BME280;39569;51.090;-1.786;2022-10-16T11:28:34;100450.19;;;28.64;30.20
53246;BME280;39569;51.090;-1.786;2022-10-16T11:31:08;100442.16;;;29.13;29.32
53246;BME280;39569;51.090;-1.786;2022-10-16T11:33:39;100449.13;;;28.41;31.16
53246;BME280;39569;51.090;-1.786;2022-10-16T11:36:14;100455.47;;;28.23;31.78
53246;BME280;39569;51.090;-1.786;2022-10-16T11:38:43;100446.44;;;27.57;34.12
53246;BME280;39569;51.090;-1.786;2022-10-16T11:41:19;100455.94;;;27.17;32.81
53246;BME280;39569;51.090;-1.786;2022-10-16T11:43:52;100449.31;;;28.95;30.44
53246;BME280;39569;51.090;-1.786;2022-10-16T11:46:24;100441.28;;;29.58;29.21
53246;BME280;39569;51.090;-1.786;2022-10-16T11:48:59;100453.00;;;28.22;30.95
53246;BME280;39569;51.090;-1.786;2022-10-16T11:51:34;100441.91;;;27.47;32.30
53246;BME280;39569;51.090;-1.786;2022-10-16T11:54:08;100438.75;;;28.89;30.10
53246;BME280;39569;51.090;-1.786;2022-10-16T11:56:43;100439.56;;;28.20;31.01
53246;BME280;39569;51.090;-1.786;2022-10-16T11:59:17;100427.31;;;29.41;30.11
53246;BME280;39569;51.090;-1.786;2022-10-16T12:01:50;100434.38;;;27.58;32.23
53246;BME280;39569;51.090;-1.786;2022-10-16T12:04:24;100432.44;;;28.38;31.37
53246;BME280;39569;51.090;-1.786;2022-10-16T12:06:59;100434.59;;;25.54;36.02
53246;BME280;39569;51.090;-1.786;2022-10-16T12:09:30;100431.72;;;27.48;32.69
53246;BME280;39569;51.090;-1.786;2022-10-16T12:11:58;100428.84;;;26.82;34.10
53246;BME280;39569;51.090;-1.786;2022-10-16T12:14:37;100425.03;;;27.35;32.86
53246;BME280;39569;51.090;-1.786;2022-10-16T12:17:24;100419.16;;;27.65;33.18
53246;BME280;39569;51.090;-1.786;2022-10-16T12:19:58;100411.75;;;26.61;33.54
53246;BME280;39569;51.090;-1.786;2022-10-16T12:22:29;100420.75;;;24.20;37.49
53246;BME280;39569;51.090;-1.786;2022-10-16T12:24:56;100428.97;;;24.50;37.76
53246;BME280;39569;51.090;-1.786;2022-10-16T12:27:27;100421.16;;;25.58;36.13
53246;BME280;39569;51.090;-1.786;2022-10-16T12:29:56;100416.66;;;26.31;35.15
53246;BME280;39569;51.090;-1.786;2022-10-16T12:32:28;100423.38;;;26.48;33.88
53246;BME280;39569;51.090;-1.786;2022-10-16T12:34:56;100426.44;;;27.28;33.28
53246;BME280;39569;51.090;-1.786;2022-10-16T12:37:27;100421.25;;;27.92;32.19
53246;BME280;39569;51.090;-1.786;2022-10-16T12:39:55;100418.56;;;28.80;30.67
53246;BME280;39569;51.090;-1.786;2022-10-16T12:42:32;100415.28;;;28.27;30.49
53246;BME280;39569;51.090;-1.786;2022-10-16T12:45:01;100419.28;;;27.08;33.57
53246;BME280;39569;51.090;-1.786;2022-10-16T12:47:48;100408.56;;;26.10;34.54
53246;BME280;39569;51.090;-1.786;2022-10-16T12:50:27;100403.94;;;26.45;34.45
53246;BME280;39569;51.090;-1.786;2022-10-16T12:52:57;100404.78;;;25.53;35.98
53246;BME280;39569;51.090;-1.786;2022-10-16T12:55:26;100407.16;;;24.80;36.98
53246;BME280;39569;51.090;-1.786;2022-10-16T12:58:21;100394.00;;;26.20;34.48
53246;BME280;39569;51.090;-1.786;2022-10-16T13:00:56;100409.59;;;24.72;37.28
53246;BME280;39569;51.090;-1.786;2022-10-16T13:03:48;100397.84;;;24.31;37.91